sensor_id;sensor_type;location;lat;lon;timestamp;P1;durP1;ratioP1;P2;durP2;ratioP2
55025;SDS011;40925;45.666;18.994;2023-04-24T00:01:30;46.00;;;22.48;;
55025;SDS011;40925;45.666;18.994;2023-04-24T00:03:56;48.50;;;22.65;;
55025;SDS011;40925;45.666;18.994;2023-04-24T00:06:24;46.63;;;24.17;;
55025;SDS011;40925;45.666;18.994;2023-04-24T00:08:57;44.28;;;24.33;;
55025;SDS011;40925;45.666;18.994;2023-04-24T00:11:25;52.13;;;24.38;;
55025;SDS011;40925;45.666;18.994;2023-04-24T00:13:51;48.17;;;23.90;;
55025;SDS011;40925;45.666;18.994;2023-04-24T00:16:17;53.13;;;24.83;;
55025;SDS011;40925;45.666;18.994;2023-04-24T00:18:43;47.28;;;25.55;;
55025;SDS011;40925;45.666;18.994;2023-04-24T00:21:10;49.63;;;25.50;;
55025;SDS011;40925;45.666;18.994;2023-04-24T00:23:36;57.03;;;27.33;;
55025;SDS011;40925;45.666;18.994;2023-04-24T00:26:01;53.50;;;26.90;;
55025;SDS011;40925;45.666;18.994;2023-04-24T00:28:27;51.03;;;26.80;;
55025;SDS011;40925;45.666;18.994;2023-04-24T00:30:53;53.80;;;27.55;;
55025;SDS011;40925;45.666;18.994;2023-04-24T00:33:19;49.85;;;28.17;;
55025;SDS011;40925;45.666;18.994;2023-04-24T00:35:45;58.78;;;28.13;;
55025;SDS011;40925;45.666;18.994;2023-04-24T00:38:11;56.28;;;29.17;;
55025;SDS011;40925;45.666;18.994;2023-04-24T00:40:36;55.00;;;28.77;;
55025;SDS011;40925;45.666;18.994;2023-04-24T00:43:02;52.50;;;28.98;;
55025;SDS011;40925;45.666;18.994;2023-04-24T00:45:28;54.80;;;28.98;;
55025;SDS011;40925;45.666;18.994;2023-04-24T00:47:56;61.17;;;28.33;;
55025;SDS011;40925;45.666;18.994;2023-04-24T00:50:22;56.75;;;28.15;;
55025;SDS011;40925;45.666;18.994;2023-04-24T00:52:49;55.08;;;29.45;;
55025;SDS011;40925;45.666;18.994;2023-04-24T00:55:14;54.83;;;28.45;;
55025;SDS011;40925;45.666;18.994;2023-04-24T00:57:41;62.00;;;30.55;;
55025;SDS011;40925;45.666;18.994;2023-04-24T01:00:06;57.97;;;29.23;;
55025;SDS011;40925;45.666;18.994;2023-04-24T01:02:35;60.58;;;31.25;;
55025;SDS011;40925;45.666;18.994;2023-04-24T01:05:05;63.67;;;31.50;;
55025;SDS011;40925;45.666;18.994;2023-04-24T01:07:31;65.00;;;32.25;;
55025;SDS011;40925;45.666;18.994;2023-04-24T01:09:58;68.18;;;33.40;;
55025;SDS011;40925;45.666;18.994;2023-04-24T01:12:24;65.20;;;31.92;;
55025;SDS011;40925;45.666;18.994;2023-04-24T01:15:08;67.13;;;31.65;;
55025;SDS011;40925;45.666;18.994;2023-04-24T01:20:01;61.40;;;31.85;;
55025;SDS011;40925;45.666;18.994;2023-04-24T01:22:30;66.35;;;31.13;;
55025;SDS011;40925;45.666;18.994;2023-04-24T01:24:57;59.72;;;30.45;;
55025;SDS011;40925;45.666;18.994;2023-04-24T01:27:23;54.55;;;29.35;;
55025;SDS011;40925;45.666;18.994;2023-04-24T01:29:48;61.00;;;30.63;;
55025;SDS011;40925;45.666;18.994;2023-04-24T01:32:16;67.03;;;36.72;;
55025;SDS011;40925;45.666;18.994;2023-04-24T01:34:43;62.70;;;31.60;;
55025;SDS011;40925;45.666;18.994;2023-04-24T01:37:10;63.88;;;40.03;;
55025;SDS011;40925;45.666;18.994;2023-04-24T01:39:35;71.53;;;45.22;;
55025;SDS011;40925;45.666;18.994;2023-04-24T01:42:01;57.58;;;30.48;;
55025;SDS011;40925;45.666;18.994;2023-04-24T01:44:27;48.13;;;24.55;;
55025;SDS011;40925;45.666;18.994;2023-04-24T01:52:02;45.30;;;22.55;;
55025;SDS011;40925;45.666;18.994;2023-04-24T01:54:28;48.28;;;26.13;;
55025;SDS011;40925;45.666;18.994;2023-04-24T01:56:54;55.78;;;29.23;;
55025;SDS011;40925;45.666;18.994;2023-04-24T01:59:20;62.42;;;40.72;;
55025;SDS011;40925;45.666;18.994;2023-04-24T02:01:47;57.10;;;32.35;;
55025;SDS011;40925;45.666;18.994;2023-04-24T02:04:13;45.45;;;25.30;;
55025;SDS011;40925;45.666;18.994;2023-04-24T02:06:40;43.35;;;23.77;;
55025;SDS011;40925;45.666;18.994;2023-04-24T02:09:06;44.75;;;24.02;;
55025;SDS011;40925;45.666;18.994;2023-04-24T02:11:33;49.28;;;23.20;;
55025;SDS011;40925;45.666;18.994;2023-04-24T02:13:59;50.13;;;23.70;;
55025;SDS011;40925;45.666;18.994;2023-04-24T02:16:25;55.00;;;30.02;;
55025;SDS011;40925;45.666;18.994;2023-04-24T02:18:51;53.28;;;27.40;;
55025;SDS011;40925;45.666;18.994;2023-04-24T02:21:17;44.45;;;26.02;;
55025;SDS011;40925;45.666;18.994;2023-04-24T02:23:43;48.53;;;24.98;;
55025;SDS011;40925;45.666;18.994;2023-04-24T02:26:10;48.53;;;23.92;;
55025;SDS011;40925;45.666;18.994;2023-04-24T02:28:36;48.80;;;25.05;;
55025;SDS011;40925;45.666;18.994;2023-04-24T02:31:02;43.83;;;24.02;;
55025;SDS011;40925;45.666;18.994;2023-04-24T02:33:28;44.33;;;23.35;;
55025;SDS011;40925;45.666;18.994;2023-04-24T02:35:54;47.42;;;24.45;;
55025;SDS011;40925;45.666;18.994;2023-04-24T02:38:20;46.13;;;23.67;;
55025;SDS011;40925;45.666;18.994;2023-04-24T02:40:46;48.85;;;24.45;;
55025;SDS011;40925;45.666;18.994;2023-04-24T02:43:12;43.80;;;24.88;;
55025;SDS011;40925;45.666;18.994;2023-04-24T02:45:38;48.80;;;24.77;;
55025;SDS011;40925;45.666;18.994;2023-04-24T02:48:04;44.50;;;24.25;;
55025;SDS011;40925;45.666;18.994;2023-04-24T02:50:30;50.55;;;24.95;;
55025;SDS011;40925;45.666;18.994;2023-04-24T02:52:58;50.80;;;24.60;;
55025;SDS011;40925;45.666;18.994;2023-04-24T02:55:24;45.58;;;24.90;;
55025;SDS011;40925;45.666;18.994;2023-04-24T02:57:50;50.53;;;24.95;;
55025;SDS011;40925;45.666;18.994;2023-04-24T03:00:16;45.42;;;24.40;;
55025;SDS011;40925;45.666;18.994;2023-04-24T03:02:42;52.13;;;26.25;;
55025;SDS011;40925;45.666;18.994;2023-04-24T03:05:08;43.60;;;25.88;;
55025;SDS011;40925;45.666;18.994;2023-04-24T03:07:36;48.17;;;25.08;;
55025;SDS011;40925;45.666;18.994;2023-04-24T03:10:03;50.05;;;25.63;;
55025;SDS011;40925;45.666;18.994;2023-04-24T03:12:30;44.95;;;25.60;;
55025;SDS011;40925;45.666;18.994;2023-04-24T03:15:15;47.10;;;26.40;;
55025;SDS011;40925;45.666;18.994;2023-04-24T03:17:40;46.75;;;26.25;;
55025;SDS011;40925;45.666;18.994;2023-04-24T03:20:06;47.17;;;25.45;;
55025;SDS011;40925;45.666;18.994;2023-04-24T03:22:35;50.28;;;27.17;;
55025;SDS011;40925;45.666;18.994;2023-04-24T03:25:01;46.70;;;25.75;;
55025;SDS011;40925;45.666;18.994;2023-04-24T03:27:27;46.25;;;25.95;;
55025;SDS011;40925;45.666;18.994;2023-04-24T03:29:53;48.10;;;26.58;;
55025;SDS011;40925;45.666;18.994;2023-04-24T03:32:21;50.10;;;26.25;;
55025;SDS011;40925;45.666;18.994;2023-04-24T03:34:48;47.50;;;26.73;;
55025;SDS011;40925;45.666;18.994;2023-04-24T03:37:15;54.17;;;26.45;;
55025;SDS011;40925;45.666;18.994;2023-04-24T03:39:42;52.30;;;27.45;;
55025;SDS011;40925;45.666;18.994;2023-04-24T03:42:08;50.05;;;26.88;;
55025;SDS011;40925;45.666;18.994;2023-04-24T03:44:34;46.58;;;26.52;;
55025;SDS011;40925;45.666;18.994;2023-04-24T03:47:00;47.85;;;25.45;;
55025;SDS011;40925;45.666;18.994;2023-04-24T03:49:26;48.60;;;27.33;;
55025;SDS011;40925;45.666;18.994;2023-04-24T03:51:52;48.65;;;26.63;;
55025;SDS011;40925;45.666;18.994;2023-04-24T03:54:18;50.28;;;26.92;;
55025;SDS011;40925;45.666;18.994;2023-04-24T03:56:44;50.47;;;26.13;;
55025;SDS011;40925;45.666;18.994;2023-04-24T03:59:10;47.67;;;26.17;;
55025;SDS011;40925;45.666;18.994;2023-04-24T04:01:36;46.53;;;25.45;;
55025;SDS011;40925;45.666;18.994;2023-04-24T04:04:05;47.88;;;26.60;;
55025;SDS011;40925;45.666;18.994;2023-04-24T04:06:32;48.85;;;26.42;;
55025;SDS011;40925;45.666;18.994;2023-04-24T04:08:58;46.40;;;26.42;;
55025;SDS011;40925;45.666;18.994;2023-04-24T04:11:24;44.95;;;25.88;;
55025;SDS011;40925;45.666;18.994;2023-04-24T04:13:51;46.58;;;26.70;;
55025;SDS011;40925;45.666;18.994;2023-04-24T04:16:16;51.33;;;26.23;;
55025;SDS011;40925;45.666;18.994;2023-04-24T04:18:42;48.97;;;25.27;;
55025;SDS011;40925;45.666;18.994;2023-04-24T04:21:09;47.50;;;25.05;;
55025;SDS011;40925;45.666;18.994;2023-04-24T04:23:34;45.42;;;24.73;;
55025;SDS011;40925;45.666;18.994;2023-04-24T04:26:01;41.78;;;24.52;;
55025;SDS011;40925;45.666;18.994;2023-04-24T04:28:28;48.63;;;25.08;;
55025;SDS011;40925;45.666;18.994;2023-04-24T04:30:55;43.33;;;24.83;;
55025;SDS011;40925;45.666;18.994;2023-04-24T04:33:22;48.58;;;26.77;;
55025;SDS011;40925;45.666;18.994;2023-04-24T04:35:49;52.05;;;28.17;;
55025;SDS011;40925;45.666;18.994;2023-04-24T04:38:17;48.83;;;27.85;;
55025;SDS011;40925;45.666;18.994;2023-04-24T04:40:45;50.00;;;24.58;;
55025;SDS011;40925;45.666;18.994;2023-04-24T04:43:11;49.10;;;24.67;;
55025;SDS011;40925;45.666;18.994;2023-04-24T04:45:38;42.22;;;22.35;;
55025;SDS011;40925;45.666;18.994;2023-04-24T04:48:06;40.50;;;21.20;;
55025;SDS011;40925;45.666;18.994;2023-04-24T04:50:37;34.95;;;19.10;;
55025;SDS011;40925;45.666;18.994;2023-04-24T04:53:03;30.88;;;18.88;;
55025;SDS011;40925;45.666;18.994;2023-04-24T04:55:29;31.20;;;18.33;;
55025;SDS011;40925;45.666;18.994;2023-04-24T04:57:55;28.80;;;17.25;;
55025;SDS011;40925;45.666;18.994;2023-04-24T05:00:36;29.55;;;17.60;;
55025;SDS011;40925;45.666;18.994;2023-04-24T05:03:02;26.30;;;15.63;;
55025;SDS011;40925;45.666;18.994;2023-04-24T05:05:28;25.23;;;15.18;;
55025;SDS011;40925;45.666;18.994;2023-04-24T05:07:54;25.92;;;15.88;;
55025;SDS011;40925;45.666;18.994;2023-04-24T05:10:20;26.85;;;16.65;;
55025;SDS011;40925;45.666;18.994;2023-04-24T05:12:46;23.27;;;16.15;;
55025;SDS011;40925;45.666;18.994;2023-04-24T05:15:12;26.30;;;19.08;;
55025;SDS011;40925;45.666;18.994;2023-04-24T05:17:37;25.30;;;15.52;;
55025;SDS011;40925;45.666;18.994;2023-04-24T05:20:05;19.50;;;12.85;;
55025;SDS011;40925;45.666;18.994;2023-04-24T05:22:34;21.15;;;13.63;;
55025;SDS011;40925;45.666;18.994;2023-04-24T05:25:01;18.63;;;12.90;;
55025;SDS011;40925;45.666;18.994;2023-04-24T05:27:27;18.67;;;13.32;;
55025;SDS011;40925;45.666;18.994;2023-04-24T05:29:53;18.02;;;13.23;;
55025;SDS011;40925;45.666;18.994;2023-04-24T05:32:19;19.63;;;12.20;;
55025;SDS011;40925;45.666;18.994;2023-04-24T05:34:45;18.90;;;12.68;;
55025;SDS011;40925;45.666;18.994;2023-04-24T05:37:11;18.48;;;13.38;;
55025;SDS011;40925;45.666;18.994;2023-04-24T05:39:37;18.90;;;13.15;;
55025;SDS011;40925;45.666;18.994;2023-04-24T05:42:03;19.05;;;12.68;;
55025;SDS011;40925;45.666;18.994;2023-04-24T05:44:29;19.02;;;13.00;;
55025;SDS011;40925;45.666;18.994;2023-04-24T05:46:56;21.85;;;16.90;;
55025;SDS011;40925;45.666;18.994;2023-04-24T05:49:22;18.83;;;14.48;;
55025;SDS011;40925;45.666;18.994;2023-04-24T05:51:48;17.02;;;11.30;;
55025;SDS011;40925;45.666;18.994;2023-04-24T05:54:14;19.02;;;11.23;;
55025;SDS011;40925;45.666;18.994;2023-04-24T05:56:40;17.98;;;11.90;;
55025;SDS011;40925;45.666;18.994;2023-04-24T05:59:07;14.68;;;10.57;;
55025;SDS011;40925;45.666;18.994;2023-04-24T06:01:33;13.82;;;10.40;;
55025;SDS011;40925;45.666;18.994;2023-04-24T06:03:59;13.90;;;10.77;;
55025;SDS011;40925;45.666;18.994;2023-04-24T06:06:25;16.83;;;10.00;;
55025;SDS011;40925;45.666;18.994;2023-04-24T06:08:52;12.10;;;9.68;;
55025;SDS011;40925;45.666;18.994;2023-04-24T06:11:18;15.15;;;10.07;;
55025;SDS011;40925;45.666;18.994;2023-04-24T06:13:44;14.35;;;10.15;;
55025;SDS011;40925;45.666;18.994;2023-04-24T06:22:30;18.85;;;12.95;;
55025;SDS011;40925;45.666;18.994;2023-04-24T06:24:56;48.28;;;37.30;;
55025;SDS011;40925;45.666;18.994;2023-04-24T06:27:22;23.85;;;17.55;;
55025;SDS011;40925;45.666;18.994;2023-04-24T06:29:48;25.38;;;14.38;;
55025;SDS011;40925;45.666;18.994;2023-04-24T06:32:21;28.98;;;19.67;;
55025;SDS011;40925;45.666;18.994;2023-04-24T06:34:52;20.23;;;13.88;;
55025;SDS011;40925;45.666;18.994;2023-04-24T06:37:18;18.40;;;12.90;;
55025;SDS011;40925;45.666;18.994;2023-04-24T06:39:47;18.35;;;14.07;;
55025;SDS011;40925;45.666;18.994;2023-04-24T06:42:13;40.97;;;34.00;;
55025;SDS011;40925;45.666;18.994;2023-04-24T06:44:39;24.20;;;19.45;;
55025;SDS011;40925;45.666;18.994;2023-04-24T06:47:08;16.80;;;12.10;;
55025;SDS011;40925;45.666;18.994;2023-04-24T06:49:35;17.80;;;13.70;;
55025;SDS011;40925;45.666;18.994;2023-04-24T06:52:01;16.77;;;9.85;;
55025;SDS011;40925;45.666;18.994;2023-04-24T06:54:28;11.50;;;7.90;;
55025;SDS011;40925;45.666;18.994;2023-04-24T06:56:54;11.55;;;8.40;;
55025;SDS011;40925;45.666;18.994;2023-04-24T06:59:22;13.15;;;8.70;;
55025;SDS011;40925;45.666;18.994;2023-04-24T07:01:50;13.25;;;8.75;;
55025;SDS011;40925;45.666;18.994;2023-04-24T07:04:16;12.38;;;8.90;;
55025;SDS011;40925;45.666;18.994;2023-04-24T07:06:42;18.83;;;11.77;;
55025;SDS011;40925;45.666;18.994;2023-04-24T07:09:09;15.40;;;9.38;;
55025;SDS011;40925;45.666;18.994;2023-04-24T07:11:35;12.13;;;8.90;;
55025;SDS011;40925;45.666;18.994;2023-04-24T07:14:01;13.45;;;8.90;;
55025;SDS011;40925;45.666;18.994;2023-04-24T07:16:27;12.50;;;8.85;;
55025;SDS011;40925;45.666;18.994;2023-04-24T07:18:53;14.63;;;9.82;;
55025;SDS011;40925;45.666;18.994;2023-04-24T07:21:19;11.60;;;8.50;;
55025;SDS011;40925;45.666;18.994;2023-04-24T07:23:45;12.68;;;8.85;;
55025;SDS011;40925;45.666;18.994;2023-04-24T07:26:10;15.98;;;9.68;;
55025;SDS011;40925;45.666;18.994;2023-04-24T07:28:36;12.05;;;9.15;;
55025;SDS011;40925;45.666;18.994;2023-04-24T07:31:02;15.13;;;9.65;;
55025;SDS011;40925;45.666;18.994;2023-04-24T07:33:27;14.55;;;10.85;;
55025;SDS011;40925;45.666;18.994;2023-04-24T07:35:53;12.50;;;10.32;;
55025;SDS011;40925;45.666;18.994;2023-04-24T07:38:19;15.13;;;10.43;;
55025;SDS011;40925;45.666;18.994;2023-04-24T07:40:48;14.82;;;10.75;;
55025;SDS011;40925;45.666;18.994;2023-04-24T07:43:14;15.45;;;10.00;;
55025;SDS011;40925;45.666;18.994;2023-04-24T07:45:40;44.45;;;23.65;;
55025;SDS011;40925;45.666;18.994;2023-04-24T07:48:06;34.35;;;19.45;;
55025;SDS011;40925;45.666;18.994;2023-04-24T07:50:33;27.15;;;17.63;;
55025;SDS011;40925;45.666;18.994;2023-04-24T07:53:00;26.40;;;18.23;;
55025;SDS011;40925;45.666;18.994;2023-04-24T07:55:26;20.33;;;14.40;;
55025;SDS011;40925;45.666;18.994;2023-04-24T07:57:52;14.85;;;11.55;;
55025;SDS011;40925;45.666;18.994;2023-04-24T08:00:18;19.80;;;12.52;;
55025;SDS011;40925;45.666;18.994;2023-04-24T08:02:44;19.20;;;11.85;;
55025;SDS011;40925;45.666;18.994;2023-04-24T08:05:10;16.38;;;11.57;;
55025;SDS011;40925;45.666;18.994;2023-04-24T08:07:36;17.00;;;12.27;;
55025;SDS011;40925;45.666;18.994;2023-04-24T08:10:02;14.57;;;11.18;;
55025;SDS011;40925;45.666;18.994;2023-04-24T08:12:28;17.60;;;12.70;;
55025;SDS011;40925;45.666;18.994;2023-04-24T08:14:54;17.15;;;12.15;;
55025;SDS011;40925;45.666;18.994;2023-04-24T08:17:20;16.95;;;11.93;;
55025;SDS011;40925;45.666;18.994;2023-04-24T08:19:46;22.45;;;13.90;;
55025;SDS011;40925;45.666;18.994;2023-04-24T08:22:16;22.05;;;13.68;;
55025;SDS011;40925;45.666;18.994;2023-04-24T08:24:42;20.90;;;13.57;;
55025;SDS011;40925;45.666;18.994;2023-04-24T08:27:09;18.83;;;13.75;;
55025;SDS011;40925;45.666;18.994;2023-04-24T08:29:35;18.55;;;12.90;;
55025;SDS011;40925;45.666;18.994;2023-04-24T08:32:01;15.38;;;11.00;;
55025;SDS011;40925;45.666;18.994;2023-04-24T08:34:27;17.48;;;13.05;;
55025;SDS011;40925;45.666;18.994;2023-04-24T08:36:53;16.27;;;11.45;;
55025;SDS011;40925;45.666;18.994;2023-04-24T08:39:19;19.17;;;11.73;;
55025;SDS011;40925;45.666;18.994;2023-04-24T08:41:45;17.73;;;12.63;;
55025;SDS011;40925;45.666;18.994;2023-04-24T08:44:12;21.00;;;14.20;;
55025;SDS011;40925;45.666;18.994;2023-04-24T08:46:40;16.13;;;11.10;;
55025;SDS011;40925;45.666;18.994;2023-04-24T08:49:08;16.63;;;11.40;;
55025;SDS011;40925;45.666;18.994;2023-04-24T08:51:33;15.20;;;10.98;;
55025;SDS011;40925;45.666;18.994;2023-04-24T08:54:01;21.52;;;12.80;;
55025;SDS011;40925;45.666;18.994;2023-04-24T08:56:29;22.85;;;14.00;;
55025;SDS011;40925;45.666;18.994;2023-04-24T08:58:58;26.50;;;19.23;;
55025;SDS011;40925;45.666;18.994;2023-04-24T09:01:24;34.00;;;23.40;;
55025;SDS011;40925;45.666;18.994;2023-04-24T09:03:51;44.95;;;24.45;;
55025;SDS011;40925;45.666;18.994;2023-04-24T09:06:19;32.15;;;18.25;;
55025;SDS011;40925;45.666;18.994;2023-04-24T09:08:46;23.38;;;15.90;;
55025;SDS011;40925;45.666;18.994;2023-04-24T09:11:14;19.52;;;12.60;;
55025;SDS011;40925;45.666;18.994;2023-04-24T09:13:40;17.40;;;10.80;;
55025;SDS011;40925;45.666;18.994;2023-04-24T09:16:06;15.98;;;10.20;;
55025;SDS011;40925;45.666;18.994;2023-04-24T09:18:32;19.45;;;10.43;;
55025;SDS011;40925;45.666;18.994;2023-04-24T09:21:01;15.85;;;10.07;;
55025;SDS011;40925;45.666;18.994;2023-04-24T09:23:27;28.17;;;17.92;;
55025;SDS011;40925;45.666;18.994;2023-04-24T09:25:55;27.10;;;17.73;;
55025;SDS011;40925;45.666;18.994;2023-04-24T09:28:25;29.85;;;23.30;;
55025;SDS011;40925;45.666;18.994;2023-04-24T09:31:03;19.48;;;12.93;;
55025;SDS011;40925;45.666;18.994;2023-04-24T09:33:38;19.05;;;13.52;;
55025;SDS011;40925;45.666;18.994;2023-04-24T09:36:03;15.20;;;11.70;;
55025;SDS011;40925;45.666;18.994;2023-04-24T09:38:35;13.07;;;10.15;;
55025;SDS011;40925;45.666;18.994;2023-04-24T09:41:02;13.75;;;9.07;;
55025;SDS011;40925;45.666;18.994;2023-04-24T09:43:29;16.42;;;11.07;;
55025;SDS011;40925;45.666;18.994;2023-04-24T09:45:56;12.43;;;9.40;;
55025;SDS011;40925;45.666;18.994;2023-04-24T09:48:29;22.23;;;16.55;;
55025;SDS011;40925;45.666;18.994;2023-04-24T09:50:56;20.52;;;15.32;;
55025;SDS011;40925;45.666;18.994;2023-04-24T09:53:25;13.40;;;9.88;;
55025;SDS011;40925;45.666;18.994;2023-04-24T09:55:52;14.52;;;9.98;;
55025;SDS011;40925;45.666;18.994;2023-04-24T09:58:18;22.88;;;18.58;;
55025;SDS011;40925;45.666;18.994;2023-04-24T10:00:54;20.70;;;16.92;;
55025;SDS011;40925;45.666;18.994;2023-04-24T10:03:22;19.95;;;15.20;;
55025;SDS011;40925;45.666;18.994;2023-04-24T10:05:51;34.15;;;28.27;;
55025;SDS011;40925;45.666;18.994;2023-04-24T10:08:17;16.88;;;13.10;;
55025;SDS011;40925;45.666;18.994;2023-04-24T10:10:44;25.85;;;17.33;;
55025;SDS011;40925;45.666;18.994;2023-04-24T10:13:11;16.35;;;13.50;;
55025;SDS011;40925;45.666;18.994;2023-04-24T10:15:40;16.45;;;12.73;;
55025;SDS011;40925;45.666;18.994;2023-04-24T10:18:06;16.70;;;12.23;;
55025;SDS011;40925;45.666;18.994;2023-04-24T10:20:34;18.77;;;13.25;;
55025;SDS011;40925;45.666;18.994;2023-04-24T10:23:01;17.73;;;12.25;;
55025;SDS011;40925;45.666;18.994;2023-04-24T10:25:28;24.17;;;15.48;;
55025;SDS011;40925;45.666;18.994;2023-04-24T10:27:56;22.98;;;15.30;;
55025;SDS011;40925;45.666;18.994;2023-04-24T10:30:24;23.30;;;16.23;;
55025;SDS011;40925;45.666;18.994;2023-04-24T10:32:52;21.75;;;15.35;;
55025;SDS011;40925;45.666;18.994;2023-04-24T10:35:17;21.25;;;14.38;;
55025;SDS011;40925;45.666;18.994;2023-04-24T10:37:52;24.48;;;17.58;;
55025;SDS011;40925;45.666;18.994;2023-04-24T10:40:26;20.08;;;16.88;;
55025;SDS011;40925;45.666;18.994;2023-04-24T10:42:55;19.17;;;15.02;;
55025;SDS011;40925;45.666;18.994;2023-04-24T10:45:22;22.35;;;15.25;;
55025;SDS011;40925;45.666;18.994;2023-04-24T10:50:28;20.63;;;15.25;;
55025;SDS011;40925;45.666;18.994;2023-04-24T10:53:04;21.45;;;14.45;;
55025;SDS011;40925;45.666;18.994;2023-04-24T10:58:21;18.00;;;13.20;;
55025;SDS011;40925;45.666;18.994;2023-04-24T11:00:58;15.60;;;9.60;;
55025;SDS011;40925;45.666;18.994;2023-04-24T11:03:28;10.65;;;7.32;;
55025;SDS011;40925;45.666;18.994;2023-04-24T11:06:05;11.50;;;9.40;;
55025;SDS011;40925;45.666;18.994;2023-04-24T11:11:10;14.75;;;11.15;;
55025;SDS011;40925;45.666;18.994;2023-04-24T11:27:14;12.88;;;10.27;;
55025;SDS011;40925;45.666;18.994;2023-04-24T11:29:43;13.52;;;9.90;;
55025;SDS011;40925;45.666;18.994;2023-04-24T11:32:16;17.55;;;9.30;;
55025;SDS011;40925;45.666;18.994;2023-04-24T11:34:50;10.75;;;7.60;;
55025;SDS011;40925;45.666;18.994;2023-04-24T11:37:24;14.48;;;8.57;;
55025;SDS011;40925;45.666;18.994;2023-04-24T11:39:55;16.92;;;11.63;;
55025;SDS011;40925;45.666;18.994;2023-04-24T11:42:22;15.60;;;10.75;;
55025;SDS011;40925;45.666;18.994;2023-04-24T11:44:49;15.00;;;9.80;;
55025;SDS011;40925;45.666;18.994;2023-04-24T11:47:16;12.35;;;9.18;;
55025;SDS011;40925;45.666;18.994;2023-04-24T11:49:42;13.75;;;9.60;;
55025;SDS011;40925;45.666;18.994;2023-04-24T11:52:08;12.48;;;8.98;;
55025;SDS011;40925;45.666;18.994;2023-04-24T11:54:35;14.35;;;9.57;;
55025;SDS011;40925;45.666;18.994;2023-04-24T11:57:03;14.70;;;9.68;;
55025;SDS011;40925;45.666;18.994;2023-04-24T11:59:35;12.25;;;8.52;;
55025;SDS011;40925;45.666;18.994;2023-04-24T12:02:02;12.23;;;7.82;;
55025;SDS011;40925;45.666;18.994;2023-04-24T12:04:37;11.77;;;8.45;;
55025;SDS011;40925;45.666;18.994;2023-04-24T12:07:05;12.90;;;9.27;;
55025;SDS011;40925;45.666;18.994;2023-04-24T12:09:54;13.45;;;9.43;;
55025;SDS011;40925;45.666;18.994;2023-04-24T12:12:20;15.10;;;9.10;;
55025;SDS011;40925;45.666;18.994;2023-04-24T12:14:54;12.70;;;9.25;;
55025;SDS011;40925;45.666;18.994;2023-04-24T12:17:25;12.95;;;9.43;;
55025;SDS011;40925;45.666;18.994;2023-04-24T12:19:59;14.00;;;9.73;;
55025;SDS011;40925;45.666;18.994;2023-04-24T12:22:28;13.48;;;9.43;;
55025;SDS011;40925;45.666;18.994;2023-04-24T12:25:15;12.20;;;8.57;;
55025;SDS011;40925;45.666;18.994;2023-04-24T12:27:43;12.30;;;8.85;;
55025;SDS011;40925;45.666;18.994;2023-04-24T12:30:17;10.40;;;7.97;;
55025;SDS011;40925;45.666;18.994;2023-04-24T12:32:44;13.55;;;10.13;;
55025;SDS011;40925;45.666;18.994;2023-04-24T12:35:12;12.15;;;8.32;;
55025;SDS011;40925;45.666;18.994;2023-04-24T12:37:38;10.88;;;7.97;;
55025;SDS011;40925;45.666;18.994;2023-04-24T12:42:35;12.80;;;8.35;;
55025;SDS011;40925;45.666;18.994;2023-04-24T12:45:06;11.48;;;8.63;;
55025;SDS011;40925;45.666;18.994;2023-04-24T12:47:33;10.70;;;8.18;;
55025;SDS011;40925;45.666;18.994;2023-04-24T12:50:00;10.15;;;8.10;;
55025;SDS011;40925;45.666;18.994;2023-04-24T12:52:28;12.57;;;8.27;;
55025;SDS011;40925;45.666;18.994;2023-04-24T12:54:58;12.82;;;9.07;;
55025;SDS011;40925;45.666;18.994;2023-04-24T12:57:26;14.02;;;9.40;;
55025;SDS011;40925;45.666;18.994;2023-04-24T12:59:57;13.57;;;10.68;;
55025;SDS011;40925;45.666;18.994;2023-04-24T13:02:27;16.80;;;10.98;;
55025;SDS011;40925;45.666;18.994;2023-04-24T13:04:57;14.18;;;11.98;;
55025;SDS011;40925;45.666;18.994;2023-04-24T13:07:23;16.10;;;11.00;;
55025;SDS011;40925;45.666;18.994;2023-04-24T13:09:50;14.65;;;11.50;;
55025;SDS011;40925;45.666;18.994;2023-04-24T13:12:16;16.63;;;11.75;;
55025;SDS011;40925;45.666;18.994;2023-04-24T13:14:43;15.02;;;11.70;;
55025;SDS011;40925;45.666;18.994;2023-04-24T13:17:09;14.93;;;10.63;;
55025;SDS011;40925;45.666;18.994;2023-04-24T13:19:37;13.75;;;9.95;;
55025;SDS011;40925;45.666;18.994;2023-04-24T13:22:04;12.10;;;9.13;;
55025;SDS011;40925;45.666;18.994;2023-04-24T13:24:30;12.90;;;9.07;;
55025;SDS011;40925;45.666;18.994;2023-04-24T13:26:56;10.20;;;8.07;;
55025;SDS011;40925;45.666;18.994;2023-04-24T13:29:22;11.38;;;8.45;;
55025;SDS011;40925;45.666;18.994;2023-04-24T13:31:51;12.90;;;9.52;;
55025;SDS011;40925;45.666;18.994;2023-04-24T13:34:19;12.50;;;9.60;;
55025;SDS011;40925;45.666;18.994;2023-04-24T13:36:46;15.85;;;10.90;;
55025;SDS011;40925;45.666;18.994;2023-04-24T13:39:11;15.68;;;10.38;;
55025;SDS011;40925;45.666;18.994;2023-04-24T13:41:37;14.93;;;10.48;;
55025;SDS011;40925;45.666;18.994;2023-04-24T13:44:04;15.18;;;10.40;;
55025;SDS011;40925;45.666;18.994;2023-04-24T13:46:31;12.82;;;10.75;;
55025;SDS011;40925;45.666;18.994;2023-04-24T13:48:58;14.82;;;11.48;;
55025;SDS011;40925;45.666;18.994;2023-04-24T13:51:25;14.77;;;11.00;;
55025;SDS011;40925;45.666;18.994;2023-04-24T13:53:54;15.43;;;11.07;;
55025;SDS011;40925;45.666;18.994;2023-04-24T13:56:20;14.63;;;11.95;;
55025;SDS011;40925;45.666;18.994;2023-04-24T13:58:47;15.82;;;12.38;;
55025;SDS011;40925;45.666;18.994;2023-04-24T14:01:13;15.32;;;11.05;;
55025;SDS011;40925;45.666;18.994;2023-04-24T14:03:40;17.40;;;11.52;;
55025;SDS011;40925;45.666;18.994;2023-04-24T14:06:07;15.82;;;12.45;;
55025;SDS011;40925;45.666;18.994;2023-04-24T14:08:32;17.50;;;14.48;;
55025;SDS011;40925;45.666;18.994;2023-04-24T14:10:58;18.45;;;13.52;;
55025;SDS011;40925;45.666;18.994;2023-04-24T14:13:24;17.90;;;14.73;;
55025;SDS011;40925;45.666;18.994;2023-04-24T14:15:50;21.25;;;14.77;;
55025;SDS011;40925;45.666;18.994;2023-04-24T14:18:17;18.40;;;14.25;;
55025;SDS011;40925;45.666;18.994;2023-04-24T14:20:43;18.23;;;14.48;;
55025;SDS011;40925;45.666;18.994;2023-04-24T14:23:09;20.05;;;14.70;;
55025;SDS011;40925;45.666;18.994;2023-04-24T14:25:35;17.80;;;14.13;;
55025;SDS011;40925;45.666;18.994;2023-04-24T14:28:01;18.40;;;14.10;;
55025;SDS011;40925;45.666;18.994;2023-04-24T14:30:27;18.48;;;13.70;;
55025;SDS011;40925;45.666;18.994;2023-04-24T14:32:53;19.00;;;14.55;;
55025;SDS011;40925;45.666;18.994;2023-04-24T14:35:19;19.02;;;15.25;;
55025;SDS011;40925;45.666;18.994;2023-04-24T14:37:44;19.17;;;14.77;;
55025;SDS011;40925;45.666;18.994;2023-04-24T14:40:10;17.80;;;14.38;;
55025;SDS011;40925;45.666;18.994;2023-04-24T14:42:36;17.65;;;14.00;;
55025;SDS011;40925;45.666;18.994;2023-04-24T14:45:02;19.00;;;14.30;;
55025;SDS011;40925;45.666;18.994;2023-04-24T14:47:27;19.23;;;14.98;;
55025;SDS011;40925;45.666;18.994;2023-04-24T14:49:54;20.10;;;16.30;;